createdAt,value
2022-10-15T08:31:26.336Z,95681.69
2022-10-15T08:32:28.364Z,95678.38
2022-10-15T08:33:33.562Z,95683.59
2022-10-15T08:34:35.850Z,95687.41
2022-10-15T08:35:46.417Z,95690.22
2022-10-15T08:36:51.080Z,95686.31
2022-10-15T08:37:54.199Z,95684.19
2022-10-15T08:38:59.139Z,95693.31
2022-10-15T08:40:01.169Z,95693.69
2022-10-15T08:41:09.221Z,95695.94
2022-10-15T08:42:22.067Z,95697.97
2022-10-15T08:43:28.675Z,95693.81
2022-10-15T08:44:37.667Z,95691.19
2022-10-15T08:45:45.236Z,95696.91
2022-10-15T08:46:55.745Z,95695.44
2022-10-15T08:48:01.411Z,95698.06
2022-10-15T08:49:07.805Z,95693.81
2022-10-15T08:50:20.438Z,95697.81
2022-10-15T08:51:27.931Z,95700.31
2022-10-15T08:52:42.595Z,95702.81
2022-10-15T08:53:51.423Z,95700.09
2022-10-15T08:54:55.511Z,95699.25
2022-10-15T08:56:06.216Z,95708.03
2022-10-15T08:57:18.468Z,95705.53
2022-10-15T08:58:30.435Z,95698.75
2022-10-15T08:59:42.713Z,95706.25
2022-10-15T09:00:53.089Z,95699.22
2022-10-15T09:02:03.739Z,95704.91
2022-10-15T09:03:21.379Z,95698.22
2022-10-15T09:04:33.829Z,95703.06
2022-10-15T09:05:43.508Z,95708.63
2022-10-15T09:06:49.980Z,95705.50
2022-10-15T09:07:57.731Z,95700.28
2022-10-15T09:09:09.280Z,95711.94
2022-10-15T09:10:15.330Z,95703.88
2022-10-15T09:11:26.563Z,95699.03
2022-10-15T09:12:41.665Z,95701.06
2022-10-15T09:13:48.030Z,95702.50
2022-10-15T09:14:51.003Z,95711.88
2022-10-15T09:16:00.399Z,95707.72
2022-10-15T09:17:17.194Z,95707.00
2022-10-15T09:18:23.725Z,95702.50
2022-10-15T09:19:31.927Z,95707.72
2022-10-15T09:20:36.787Z,95704.88
2022-10-15T09:21:41.803Z,95698.56
2022-10-15T09:22:44.739Z,95704.38
2022-10-15T09:23:49.780Z,95696.91
2022-10-15T09:24:51.971Z,95696.91
2022-10-15T09:26:05.025Z,95702.53
2022-10-15T09:27:13.007Z,95701.22
2022-10-15T09:28:21.431Z,95701.81
2022-10-15T09:29:33.526Z,95700.16
2022-10-15T09:30:42.766Z,95706.69
2022-10-15T09:32:03.042Z,95708.00
2022-10-15T09:33:19.361Z,95708.41
2022-10-15T09:34:26.706Z,95714.22
2022-10-15T09:35:36.499Z,95718.59
2022-10-15T09:36:44.996Z,95717.75
2022-10-15T09:38:02.149Z,95705.78
2022-10-15T09:39:27.907Z,95720.16
2022-10-15T09:40:49.829Z,95714.31
2022-10-15T09:42:01.923Z,95708.88
2022-10-15T09:43:08.973Z,95712.94
2022-10-15T09:44:13.993Z,95705.72
2022-10-15T09:45:21.461Z,95722.94
2022-10-15T09:46:26.359Z,95708.09
2022-10-15T09:47:32.913Z,95709.50
2022-10-15T09:48:46.456Z,95705.97
2022-10-15T09:49:51.748Z,95709.50
2022-10-15T09:51:03.133Z,95717.47
2022-10-15T09:52:13.080Z,95712.84
2022-10-15T09:53:27.543Z,95716.53
2022-10-15T09:54:46.101Z,95716.78
2022-10-15T09:55:55.045Z,95716.44
2022-10-15T09:56:58.963Z,95714.88
2022-10-15T09:58:09.720Z,95712.28
2022-10-15T09:59:19.524Z,95720.13
2022-10-15T10:00:24.355Z,95730.84
2022-10-15T10:01:30.580Z,95719.06
2022-10-15T10:02:32.676Z,95721.09
2022-10-15T10:03:40.818Z,95719.66
2022-10-15T10:04:42.891Z,95722.16
2022-10-15T10:05:48.597Z,95720.84
2022-10-15T10:06:54.007Z,95722.16
2022-10-15T10:08:12.407Z,95723.44
2022-10-15T10:09:17.992Z,95714.88
2022-10-15T10:10:28.318Z,95718.59
2022-10-15T10:11:50.953Z,95726.91
2022-10-15T10:12:57.432Z,95727.50
2022-10-15T10:14:00.989Z,95726.09
2022-10-15T10:15:09.901Z,95725.88
2022-10-15T10:16:14.037Z,95725.38
2022-10-15T10:17:22.763Z,95726.69
2022-10-15T10:18:25.943Z,95735.38
2022-10-15T10:19:33.435Z,95721.97
2022-10-15T10:20:38.276Z,95729.91
2022-10-15T10:21:46.337Z,95732.75
2022-10-15T10:22:52.766Z,95734.19
2022-10-15T10:23:54.931Z,95726.13
2022-10-15T10:24:59.627Z,95726.38
2022-10-15T10:26:03.718Z,95725.63
2022-10-15T10:27:24.794Z,95734.19
2022-10-15T10:28:34.851Z,95729.41
2022-10-15T10:29:40.820Z,95729.41
2022-10-15T10:30:54.534Z,95733.47
2022-10-15T10:31:57.487Z,95733.13
2022-10-15T10:33:04.010Z,95726.81
2022-10-15T10:34:06.234Z,95738.22
2022-10-15T10:35:24.050Z,95731.47
2022-10-15T10:36:31.795Z,95733.16
2022-10-15T10:37:42.675Z,95729.81
2022-10-15T10:38:58.692Z,95728.97
2022-10-15T10:40:03.913Z,95728.84
2022-10-15T10:41:11.017Z,95725.91
2022-10-15T10:42:26.462Z,95729.47
2022-10-15T10:43:36.764Z,95732.75
2022-10-15T10:44:47.059Z,95731.38
2022-10-15T10:45:57.752Z,95728.38
2022-10-15T10:47:12.332Z,95724.78
2022-10-15T10:48:20.635Z,95734.16
2022-10-15T10:49:33.822Z,95728.50
2022-10-15T10:50:41.089Z,95731.03
2022-10-15T10:51:52.575Z,95734.41
2022-10-15T10:52:54.762Z,95737.72
2022-10-15T10:54:01.877Z,95737.44
2022-10-15T10:55:07.135Z,95744.25
2022-10-15T10:56:15.686Z,95736.78
2022-10-15T10:57:26.875Z,95741.53
2022-10-15T10:58:36.117Z,95741.09
2022-10-15T10:59:45.144Z,95741.06
2022-10-15T11:00:52.508Z,95741.00
2022-10-15T11:01:58.474Z,95744.13
2022-10-15T11:03:03.925Z,95749.50
2022-10-15T11:04:18.672Z,95747.59
2022-10-15T11:05:28.130Z,95745.09
2022-10-15T11:07:00.382Z,95748.72
2022-10-15T11:08:11.930Z,95741.88
2022-10-15T11:09:33.574Z,95746.47
2022-10-15T11:10:42.379Z,95744.78
2022-10-15T11:11:55.503Z,95743.69
2022-10-15T11:13:06.983Z,95748.94
2022-10-15T11:14:22.330Z,95751.63
2022-10-15T11:15:35.705Z,95752.59
2022-10-15T11:16:48.919Z,95754.44
2022-10-15T11:17:55.781Z,95754.75
2022-10-15T11:19:19.703Z,95743.81
2022-10-15T11:20:59.615Z,95757.00
2022-10-15T11:22:38.597Z,95750.03
2022-10-15T11:24:09.052Z,95751.13
2022-10-15T11:25:22.749Z,95749.88
2022-10-15T11:26:46.166Z,95745.31
2022-10-15T11:28:08.646Z,95751.53
2022-10-15T11:29:22.561Z,95752.78
2022-10-15T11:30:41.307Z,95752.13
2022-10-15T11:32:02.463Z,95750.16
2022-10-15T11:33:31.924Z,95749.50
2022-10-15T11:34:53.193Z,95743.44
2022-10-15T11:36:06.167Z,95741.53
2022-10-15T11:37:24.723Z,95748.03
2022-10-15T11:38:39.495Z,95745.41
2022-10-15T11:39:59.536Z,95753.34
2022-10-15T11:41:18.432Z,95749.50
2022-10-15T11:42:28.328Z,95749.56
2022-10-15T11:43:44.213Z,95741.97
2022-10-15T11:45:12.998Z,95742.22
2022-10-15T11:46:25.417Z,95740.50
2022-10-15T11:47:41.542Z,95739.28
2022-10-15T11:49:00.566Z,95740.75
2022-10-15T11:50:14.597Z,95741.25
2022-10-15T11:51:28.857Z,95742.88
2022-10-15T11:52:49.250Z,95746.94
2022-10-15T11:54:24.760Z,95742.69
2022-10-15T11:55:35.651Z,95741.16
2022-10-15T11:56:44.000Z,95731.75
2022-10-15T11:57:50.052Z,95739.03
2022-10-15T12:00:35.075Z,95736.59
2022-10-15T12:01:41.936Z,95722.97
2022-10-15T12:02:47.150Z,95721.34
2022-10-15T12:03:56.702Z,95723.88
2022-10-15T12:05:01.467Z,95721.25
2022-10-15T12:06:10.267Z,95723.97
2022-10-15T12:07:21.294Z,95712.84
2022-10-15T12:08:29.494Z,95722.53
2022-10-15T12:09:38.407Z,95729.56
2022-10-15T12:10:59.449Z,95729.94
2022-10-15T12:12:07.625Z,95727.75
2022-10-15T12:13:20.861Z,95721.50
2022-10-15T12:14:28.647Z,95715.72
2022-10-15T12:15:42.586Z,95728.63
2022-10-15T12:16:53.818Z,95715.34
2022-10-15T12:18:06.658Z,95711.19
2022-10-15T12:19:16.239Z,95705.53
2022-10-15T12:20:24.188Z,95702.78
2022-10-15T12:21:35.874Z,95696.13
2022-10-15T12:22:43.049Z,95696.97
2022-10-15T12:23:45.184Z,95698.06
2022-10-15T12:24:57.651Z,95692.69
2022-10-15T12:25:59.808Z,95698.50
2022-10-15T12:27:18.747Z,95716.47
2022-10-15T12:28:26.853Z,95695.56
2022-10-15T12:29:29.243Z,95689.22
2022-10-15T12:30:37.108Z,95698.59
2022-10-15T12:31:50.315Z,95685.63
2022-10-15T12:32:55.654Z,95683.69
2022-10-15T12:33:58.298Z,95685.91
2022-10-15T12:35:05.329Z,95688.00
2022-10-15T12:36:28.331Z,95681.84
2022-10-15T12:37:37.267Z,95691.72
2022-10-15T12:38:44.025Z,95688.09
2022-10-15T12:39:52.591Z,95694.22
2022-10-15T12:41:07.111Z,95705.38
2022-10-15T12:42:25.058Z,95704.16
2022-10-15T12:43:28.194Z,95710.25
2022-10-15T12:44:35.730Z,95709.25
2022-10-15T12:45:40.729Z,95707.06
2022-10-15T12:46:45.773Z,95707.78
2022-10-15T12:47:50.477Z,95713.03
2022-10-15T12:48:58.244Z,95704.31
2022-10-15T12:50:03.893Z,95703.34
2022-10-15T12:51:32.918Z,95712.75
2022-10-15T12:53:00.601Z,95707.75
2022-10-15T12:54:02.768Z,95701.94
2022-10-15T12:55:24.162Z,95711.91
2022-10-15T12:56:36.905Z,95695.44
2022-10-15T12:57:56.365Z,95706.31
2022-10-15T12:59:01.051Z,95707.84
2022-10-15T13:00:24.616Z,95699.06
2022-10-15T13:01:52.516Z,95702.75
2022-10-15T13:02:56.150Z,95699.03
2022-10-15T13:04:03.997Z,95697.22
2022-10-15T13:05:10.440Z,95694.44
2022-10-15T13:06:34.933Z,95697.78
2022-10-15T13:07:41.703Z,95697.25
2022-10-15T13:08:48.782Z,95685.78
2022-10-15T13:09:55.127Z,95684.00
2022-10-15T13:10:59.582Z,95682.44
2022-10-15T13:12:07.399Z,95683.28
2022-10-15T13:13:17.553Z,95681.47
2022-10-15T13:14:31.189Z,95688.97
2022-10-15T13:15:34.950Z,95681.72
2022-10-15T13:16:40.297Z,95686.06
2022-10-15T13:17:47.818Z,95690.91
2022-10-15T13:18:59.640Z,95687.03
2022-10-15T13:20:04.596Z,95684.28
2022-10-15T13:21:11.400Z,95692.41
2022-10-15T13:22:26.422Z,95684.00
2022-10-15T13:23:31.002Z,95679.41
2022-10-15T13:24:43.800Z,95684.13
2022-10-15T13:25:45.944Z,95684.94
2022-10-15T13:26:51.476Z,95689.38
2022-10-15T13:27:56.157Z,95695.56
2022-10-15T13:29:02.484Z,95690.75
2022-10-15T13:30:10.428Z,95694.19
2022-10-15T13:31:35.382Z,95697.50
2022-10-15T13:32:46.224Z,95693.75
2022-10-15T13:33:52.464Z,95689.03
2022-10-15T13:34:59.970Z,95696.66
2022-10-15T13:36:07.511Z,95689.31
2022-10-15T13:37:22.253Z,95697.22
2022-10-15T13:38:28.299Z,95696.31
2022-10-15T13:39:36.452Z,95699.44
2022-10-15T13:40:39.899Z,95706.22
2022-10-15T13:41:45.731Z,95696.81
2022-10-15T13:43:06.565Z,95708.13
2022-10-15T13:44:24.389Z,95714.91
2022-10-15T13:45:27.343Z,95718.22
2022-10-15T13:46:36.176Z,95716.56
2022-10-15T13:47:42.743Z,95724.91
2022-10-15T13:48:48.459Z,95725.81
2022-10-15T13:49:51.322Z,95725.94
2022-10-15T13:50:58.995Z,95723.84
2022-10-15T13:52:02.696Z,95722.66
2022-10-15T13:53:17.103Z,95720.34
2022-10-15T13:54:25.652Z,95719.88
2022-10-15T13:55:33.917Z,95721.13
2022-10-15T13:56:36.707Z,95726.16
2022-10-15T13:57:47.326Z,95726.22
2022-10-15T13:58:57.709Z,95716.03
2022-10-15T14:00:04.971Z,95715.06
2022-10-15T14:01:13.421Z,95719.47
2022-10-15T14:02:19.573Z,95714.22
2022-10-15T14:03:24.538Z,95714.72
2022-10-15T14:08:25.276Z,95714.72
2022-10-15T14:09:35.145Z,95710.69
2022-10-15T14:10:38.480Z,95713.75
2022-10-15T14:11:45.084Z,95713.75
2022-10-15T14:12:52.277Z,95715.44
2022-10-15T14:14:02.458Z,95712.00
2022-10-15T14:15:34.905Z,95708.91
2022-10-15T14:16:49.067Z,95710.78
2022-10-15T14:17:52.500Z,95713.16
2022-10-15T14:19:01.681Z,95714.94
2022-10-15T14:20:27.334Z,95716.59
2022-10-15T14:21:33.094Z,95713.16
2022-10-15T14:22:36.397Z,95714.22
2022-10-15T14:23:43.484Z,95726.69
2022-10-15T14:24:53.085Z,95725.28
2022-10-15T14:25:58.595Z,95727.28
2022-10-15T14:27:11.236Z,95725.88
2022-10-15T14:28:21.048Z,95730.28
2022-10-15T14:29:30.574Z,95717.31
2022-10-15T14:30:36.744Z,95723.13
2022-10-15T14:31:48.404Z,95725.63
2022-10-15T14:32:53.116Z,95723.84
2022-10-15T14:34:02.787Z,95722.28
2022-10-15T14:35:10.083Z,95724.19
2022-10-15T14:36:28.867Z,95732.50
2022-10-15T14:37:41.408Z,95735.34
2022-10-15T14:38:47.469Z,95737.47
2022-10-15T14:39:50.517Z,95742.56
2022-10-15T14:41:07.165Z,95736.53
2022-10-15T14:42:31.439Z,95741.03
2022-10-15T14:43:35.665Z,95745.91
2022-10-15T14:44:50.820Z,95736.53
2022-10-15T14:45:58.617Z,95733.91
2022-10-15T14:47:06.566Z,95734.59
2022-10-15T14:48:11.450Z,95733.44
2022-10-15T14:49:30.365Z,95735.66
2022-10-15T14:50:35.818Z,95730.91
2022-10-15T14:51:42.014Z,95733.91
2022-10-15T14:52:50.537Z,95731.88
2022-10-15T14:53:55.477Z,95734.13
2022-10-15T14:55:13.133Z,95733.16
2022-10-15T14:56:20.730Z,95734.56
2022-10-15T14:57:34.717Z,95736.34
2022-10-15T14:58:52.367Z,95740.00
2022-10-15T15:00:04.402Z,95740.97
2022-10-15T15:01:08.785Z,95728.75
2022-10-15T15:02:20.145Z,95738.13
2022-10-15T15:03:30.635Z,95737.16
2022-10-15T15:04:52.659Z,95736.47
2022-10-15T15:06:01.247Z,95739.78
2022-10-15T15:07:23.586Z,95727.59
2022-10-15T15:08:30.297Z,95734.78
2022-10-15T15:09:36.532Z,95732.66
2022-10-15T15:10:43.248Z,95730.19
2022-10-15T15:11:51.082Z,95732.91
2022-10-15T15:13:04.790Z,95729.34
2022-10-15T15:14:25.795Z,95726.63
2022-10-15T15:15:30.535Z,95724.97
2022-10-15T15:16:35.209Z,95722.47
2022-10-15T15:17:37.349Z,95728.28
2022-10-15T15:18:49.072Z,95723.44
2022-10-15T15:19:54.923Z,95725.94
2022-10-15T15:21:04.703Z,95721.75
2022-10-15T15:22:09.917Z,95722.50
2022-10-15T15:23:30.060Z,95723.44
2022-10-15T15:24:33.507Z,95716.06
2022-10-15T15:25:45.835Z,95712.53
2022-10-15T15:26:48.774Z,95713.25
2022-10-15T15:27:56.409Z,95720.22
2022-10-15T15:29:02.563Z,95717.28
2022-10-15T15:30:19.740Z,95718.50
2022-10-15T15:31:29.414Z,95712.91
2022-10-15T15:32:35.305Z,95713.53
2022-10-15T15:33:41.627Z,95711.59
2022-10-15T15:34:48.563Z,95712.44
2022-10-15T15:35:59.686Z,95703.75
2022-10-15T15:37:03.374Z,95707.34
2022-10-15T15:38:11.496Z,95709.13
2022-10-15T15:39:14.578Z,95714.22
2022-10-15T15:40:20.835Z,95710.28
2022-10-15T15:41:27.632Z,95711.75
2022-10-15T15:42:33.600Z,95713.03
2022-10-15T15:43:39.413Z,95711.50
2022-10-15T15:44:52.133Z,95714.44
2022-10-15T15:45:57.088Z,95720.63
2022-10-15T15:47:03.429Z,95723.25
2022-10-15T15:48:09.312Z,95722.19
2022-10-15T15:49:12.840Z,95720.41
2022-10-15T15:50:21.529Z,95716.56
2022-10-15T15:51:28.326Z,95726.19
2022-10-15T15:52:38.787Z,95731.56
2022-10-15T15:53:46.640Z,95724.06
2022-10-15T15:54:55.284Z,95725.34
2022-10-15T15:56:04.283Z,95726.91
2022-10-15T15:57:11.547Z,95728.56
2022-10-15T15:58:18.057Z,95733.06
2022-10-15T15:59:25.514Z,95729.84
2022-10-15T16:00:31.359Z,95717.75
2022-10-15T16:01:37.123Z,95728.94
2022-10-15T16:02:46.924Z,95721.19
2022-10-15T16:03:52.622Z,95724.03
2022-10-15T16:05:04.801Z,95725.81
2022-10-15T16:06:09.307Z,95727.38
2022-10-15T16:07:18.994Z,95730.00
2022-10-15T16:08:26.103Z,95728.66
2022-10-15T16:09:37.218Z,95725.19
2022-10-15T16:10:41.010Z,95729.59
2022-10-15T16:11:51.970Z,95730.06
2022-10-15T16:12:56.998Z,95719.94
2022-10-15T16:14:09.495Z,95726.34
2022-10-15T16:15:14.926Z,95727.41
2022-10-15T16:16:24.894Z,95726.59
2022-10-15T16:17:27.825Z,95730.84
2022-10-15T16:18:37.821Z,95731.47
2022-10-15T16:19:48.088Z,95730.97
2022-10-15T16:20:51.952Z,95725.38
2022-10-15T16:22:04.092Z,95729.03
2022-10-15T16:23:06.566Z,95727.59
2022-10-15T16:24:13.115Z,95729.25
2022-10-15T16:25:16.655Z,95738.03
2022-10-15T16:26:25.613Z,95734.72
2022-10-15T16:27:35.757Z,95735.91
2022-10-15T16:28:39.166Z,95737.03
2022-10-15T16:29:51.288Z,95746.78
2022-10-15T16:30:56.747Z,95755.31
2022-10-15T16:32:03.121Z,95746.66
2022-10-15T16:34:17.719Z,95746.06
2022-10-15T16:35:23.167Z,95756.69
2022-10-15T16:36:30.000Z,95749.41
2022-10-15T16:37:36.524Z,95755.31
2022-10-15T16:38:48.597Z,95758.66
2022-10-15T16:39:51.994Z,95762.44
2022-10-15T16:41:02.067Z,95761.50
2022-10-15T16:42:06.123Z,95761.72
2022-10-15T16:43:15.295Z,95759.59
2022-10-15T16:44:18.360Z,95760.13
2022-10-15T16:45:23.855Z,95764.75
2022-10-15T16:46:30.654Z,95764.25
2022-10-15T16:47:33.945Z,95769.78
2022-10-15T16:48:39.698Z,95769.16
2022-10-15T16:49:46.679Z,95768.72
2022-10-15T16:51:02.503Z,95769.56
2022-10-15T16:52:09.939Z,95773.94
2022-10-15T16:53:17.901Z,95772.38
2022-10-15T16:54:26.412Z,95776.78
2022-10-15T16:55:32.398Z,95776.56
2022-10-15T16:56:38.498Z,95782.78
2022-10-15T16:57:42.390Z,95777.88
2022-10-15T16:58:48.228Z,95778.19
2022-10-15T16:59:51.921Z,95773.00
2022-10-15T17:01:08.799Z,95774.91
2022-10-15T17:02:12.604Z,95787.44
2022-10-15T17:03:18.136Z,95782.44
2022-10-15T17:04:23.722Z,95790.47
2022-10-15T17:05:29.524Z,95786.53
2022-10-15T17:06:37.177Z,95784.38
2022-10-15T17:07:41.285Z,95786.47
2022-10-15T17:08:52.070Z,95788.94
2022-10-15T17:09:55.312Z,95785.72
2022-10-15T17:11:12.581Z,95792.00
2022-10-15T17:12:23.955Z,95787.91
2022-10-15T17:13:28.011Z,95789.06
2022-10-15T17:14:34.095Z,95791.03
2022-10-15T17:15:37.324Z,95796.47
2022-10-15T17:16:45.011Z,95801.69
2022-10-15T17:17:50.403Z,95796.47
2022-10-15T17:18:57.883Z,95798.97
2022-10-15T17:20:21.591Z,95809.09
2022-10-15T17:21:46.963Z,95809.19
2022-10-15T17:22:52.077Z,95806.34
2022-10-15T17:24:03.548Z,95804.22
2022-10-15T17:25:11.171Z,95806.97
2022-10-15T17:26:19.663Z,95800.69
2022-10-15T17:27:27.038Z,95805.91
2022-10-15T17:28:32.824Z,95803.31
2022-10-15T17:29:40.178Z,95812.56
2022-10-15T17:30:43.697Z,95813.38
2022-10-15T17:31:50.826Z,95812.56
2022-10-15T17:32:54.562Z,95818.72
2022-10-15T17:34:03.975Z,95816.22
2022-10-15T17:35:10.007Z,95816.00
2022-10-15T17:36:20.078Z,95814.72
2022-10-15T17:37:26.985Z,95818.06
2022-10-15T17:38:37.296Z,95823.72
2022-10-15T17:39:44.962Z,95827.00
2022-10-15T17:40:54.467Z,95825.44
2022-10-15T17:42:03.731Z,95822.84
2022-10-15T17:43:14.062Z,95829.75
2022-10-15T17:44:25.892Z,95828.06
2022-10-15T17:45:30.353Z,95832.44
2022-10-15T17:46:42.977Z,95832.44
2022-10-15T17:47:47.106Z,95833.19
2022-10-15T17:49:09.053Z,95834.78
2022-10-15T17:50:15.401Z,95832.91
2022-10-15T17:51:22.364Z,95843.81
2022-10-15T17:52:32.919Z,95836.28
2022-10-15T17:53:35.345Z,95833.66
2022-10-15T17:54:40.063Z,95845.56
2022-10-15T17:55:42.884Z,95843.78
2022-10-15T17:56:49.087Z,95850.78
2022-10-15T17:57:51.480Z,95845.56
2022-10-15T17:58:56.984Z,95849.59
2022-10-15T17:59:59.191Z,95852.44
2022-10-15T18:01:04.187Z,95839.53
2022-10-15T18:02:10.112Z,95844.63
2022-10-15T18:03:13.283Z,95848.06
2022-10-15T18:04:18.042Z,95839.91
2022-10-15T18:05:20.288Z,95839.06
2022-10-15T18:06:27.062Z,95835.94
2022-10-15T18:07:32.147Z,95851.72
2022-10-15T18:08:37.466Z,95836.78
2022-10-15T18:09:45.283Z,95841.28
2022-10-15T18:10:56.186Z,95838.19
2022-10-15T18:12:05.847Z,95839.53
2022-10-15T18:13:09.452Z,95847.22
2022-10-15T18:14:16.296Z,95846.72
2022-10-15T18:15:26.925Z,95846.09
2022-10-15T18:16:44.671Z,95843.50
2022-10-15T18:17:46.880Z,95845.50
2022-10-15T18:18:52.244Z,95858.78
2022-10-15T18:19:57.178Z,95851.25
2022-10-15T18:21:03.754Z,95854.59
2022-10-15T18:22:09.945Z,95861.47
2022-10-15T18:23:18.679Z,95855.66
2022-10-15T18:24:22.261Z,95865.31
2022-10-15T18:25:27.074Z,95859.50
2022-10-15T18:26:29.456Z,95855.13
2022-10-15T18:27:38.286Z,95858.53
2022-10-15T18:28:42.844Z,95850.84
2022-10-15T18:29:48.147Z,95861.50
2022-10-15T18:30:50.411Z,95853.69
2022-10-15T18:31:58.208Z,95859.81
2022-10-15T18:33:00.572Z,95859.81
2022-10-15T18:34:05.533Z,95856.47
2022-10-15T18:35:08.457Z,95863.38
2022-10-15T18:36:16.540Z,95860.66
2022-10-15T18:37:21.495Z,95863.38
2022-10-15T18:38:26.239Z,95864.22
2022-10-15T18:39:31.033Z,95857.50
2022-10-15T18:40:36.225Z,95861.47
2022-10-15T18:43:09.487Z,95852.28
2022-10-15T18:44:16.740Z,95856.75
2022-10-15T18:45:21.663Z,95856.75
2022-10-15T18:46:24.528Z,95848.34
2022-10-15T18:47:29.559Z,95857.19
2022-10-15T18:48:32.937Z,95855.66
2022-10-15T18:49:38.878Z,95855.88
2022-10-15T18:50:42.613Z,95857.19
2022-10-15T18:51:51.831Z,95856.38
2022-10-15T18:52:54.293Z,95855.78
2022-10-15T18:54:01.986Z,95849.00
2022-10-15T18:55:05.032Z,95857.75
2022-10-15T18:56:13.014Z,95848.88
2022-10-15T18:57:18.423Z,95843.34
2022-10-15T18:58:20.619Z,95851.25
2022-10-15T18:59:25.528Z,95851.47
2022-10-15T19:00:28.597Z,95852.44
2022-10-15T19:01:35.546Z,95854.81
2022-10-15T19:02:37.919Z,95858.16
2022-10-15T19:03:42.687Z,95853.78
2022-10-15T19:04:44.827Z,95854.16
2022-10-15T19:05:51.146Z,95855.13
2022-10-15T19:06:54.734Z,95859.50
2022-10-15T19:07:59.393Z,95856.06
2022-10-15T19:09:07.366Z,95857.81
2022-10-15T19:10:15.272Z,95859.59
2022-10-15T19:11:20.379Z,95856.06
2022-10-15T19:12:26.344Z,95852.72
2022-10-15T19:13:28.718Z,95860.78
2022-10-15T19:14:33.557Z,95855.56
2022-10-15T19:15:36.365Z,95851.25
2022-10-15T19:16:43.568Z,95857.34
2022-10-15T19:17:47.154Z,95856.28
2022-10-15T19:18:53.617Z,95861.28
2022-10-15T19:19:59.084Z,95858.78
2022-10-15T19:21:06.799Z,95861.38
2022-10-15T19:22:12.694Z,95865.44
2022-10-15T19:23:15.783Z,95861.06
2022-10-15T19:24:25.659Z,95871.59
2022-10-15T19:25:28.027Z,95870.88
2022-10-15T19:26:33.418Z,95865.88
2022-10-15T19:27:36.370Z,95874.66
2022-10-15T19:28:42.626Z,95871.19
2022-10-15T19:29:44.944Z,95870.44
2022-10-15T19:30:58.078Z,95872.31
2022-10-15T19:32:04.151Z,95878.19
2022-10-15T19:33:08.717Z,95879.97
2022-10-15T19:34:16.374Z,95880.03
2022-10-15T19:35:20.970Z,95878.38
2022-10-15T19:36:28.393Z,95887.16
2022-10-15T19:37:43.963Z,95882.84
2022-10-15T19:38:53.055Z,95883.81
2022-10-15T19:43:50.060Z,95887.84
2022-10-15T19:44:55.497Z,95901.75
